createdAt,value
2022-12-19T00:02:21.044Z,8.00
2022-12-19T00:04:49.741Z,7.80
2022-12-19T00:07:17.707Z,7.90
2022-12-19T00:09:45.759Z,8.10
2022-12-19T00:12:18.996Z,8.00
2022-12-19T00:14:48.061Z,8.50
2022-12-19T00:17:15.622Z,7.80
2022-12-19T00:19:43.815Z,8.20
2022-12-19T00:22:12.518Z,8.70
2022-12-19T00:24:41.923Z,8.40
2022-12-19T00:27:11.599Z,8.90
2022-12-19T00:29:39.752Z,8.70
2022-12-19T00:32:07.475Z,8.10
2022-12-19T00:34:36.086Z,8.60
2022-12-19T00:37:03.701Z,8.00
2022-12-19T00:39:31.961Z,7.00
2022-12-19T00:41:59.907Z,7.90
2022-12-19T00:44:27.517Z,7.90
2022-12-19T00:46:55.355Z,7.70
2022-12-19T00:49:23.985Z,7.70
2022-12-19T00:51:51.875Z,8.60
2022-12-19T00:54:19.328Z,8.70
2022-12-19T00:56:47.271Z,8.20
2022-12-19T00:59:14.831Z,7.70
2022-12-19T01:01:45.912Z,7.30
2022-12-19T01:04:31.244Z,7.50
2022-12-19T01:07:03.131Z,7.50
2022-12-19T01:09:33.876Z,9.20
2022-12-19T01:12:20.460Z,8.90
2022-12-19T01:14:54.653Z,7.50
2022-12-19T01:17:38.714Z,8.20
2022-12-19T01:20:29.025Z,9.00
2022-12-19T01:23:00.489Z,8.20
2022-12-19T01:25:28.873Z,8.50
2022-12-19T01:27:57.130Z,8.80
2022-12-19T01:30:24.724Z,8.40
2022-12-19T01:32:53.616Z,8.10
2022-12-19T01:35:21.293Z,8.40
2022-12-19T01:37:51.204Z,7.10
2022-12-19T01:40:18.858Z,7.40
2022-12-19T01:42:45.639Z,7.30
2022-12-19T01:45:20.034Z,6.70
2022-12-19T01:48:32.992Z,7.30
2022-12-19T01:51:02.684Z,7.30
2022-12-19T01:53:49.952Z,7.40
2022-12-19T01:56:18.325Z,8.80
2022-12-19T01:58:48.833Z,7.10
2022-12-19T02:01:15.790Z,7.60
2022-12-19T02:03:42.621Z,7.40
2022-12-19T02:06:10.649Z,7.70
2022-12-19T02:08:37.611Z,7.50
2022-12-19T02:11:05.282Z,8.40
2022-12-19T02:13:32.270Z,6.90
2022-12-19T02:16:07.635Z,7.40
2022-12-19T02:19:16.112Z,7.70
2022-12-19T02:22:21.393Z,7.50
2022-12-19T02:25:10.133Z,7.70
2022-12-19T02:27:51.150Z,8.80
2022-12-19T02:30:49.184Z,9.90
2022-12-19T02:33:48.233Z,9.60
2022-12-19T02:36:18.924Z,8.70
2022-12-19T02:38:54.001Z,8.20
2022-12-19T02:41:23.771Z,9.40
2022-12-19T02:43:58.807Z,7.80
2022-12-19T02:46:27.527Z,8.50
2022-12-19T02:48:55.039Z,8.80
2022-12-19T02:51:21.857Z,8.10
2022-12-19T02:53:48.822Z,9.60
2022-12-19T02:56:18.446Z,8.90
2022-12-19T02:59:24.556Z,9.50
2022-12-19T03:02:03.195Z,9.00
2022-12-19T03:04:58.321Z,10.60
2022-12-19T03:07:36.230Z,12.40
2022-12-19T03:10:21.850Z,12.10
2022-12-19T03:12:52.385Z,11.50
2022-12-19T03:15:20.038Z,11.30
2022-12-19T03:17:47.204Z,10.60
2022-12-19T03:20:20.434Z,10.60
2022-12-19T03:22:47.740Z,10.00
2022-12-19T03:25:15.277Z,10.00
2022-12-19T03:27:42.087Z,10.60
2022-12-19T03:30:10.900Z,9.90
2022-12-19T03:32:38.495Z,10.30
2022-12-19T03:35:12.080Z,10.10
2022-12-19T03:37:39.801Z,10.70
2022-12-19T03:40:10.305Z,9.20
2022-12-19T03:42:56.783Z,9.00
2022-12-19T03:45:31.425Z,8.80
2022-12-19T03:47:59.768Z,9.00
2022-12-19T03:50:30.139Z,10.00
2022-12-19T03:53:03.615Z,9.00
2022-12-19T03:55:33.264Z,10.70
2022-12-19T03:58:05.898Z,9.80
2022-12-19T04:00:34.460Z,9.50
2022-12-19T04:03:01.888Z,10.10
2022-12-19T04:05:28.868Z,10.30
2022-12-19T04:07:58.974Z,10.20
2022-12-19T04:10:26.546Z,11.70
2022-12-19T04:12:56.884Z,13.70
2022-12-19T04:15:33.119Z,13.80
2022-12-19T04:17:59.984Z,13.40
2022-12-19T04:20:26.831Z,14.50
2022-12-19T04:22:58.762Z,14.10
2022-12-19T04:25:46.852Z,14.80
2022-12-19T04:28:19.321Z,13.90
2022-12-19T04:30:46.301Z,10.90
2022-12-19T04:33:13.178Z,14.60
2022-12-19T04:35:40.054Z,14.60
2022-12-19T04:38:07.121Z,15.50
2022-12-19T04:40:40.966Z,15.10
2022-12-19T04:45:35.583Z,16.10
2022-12-19T04:48:03.473Z,18.10
2022-12-19T04:50:30.303Z,16.50
2022-12-19T04:52:57.356Z,17.10
2022-12-19T04:55:24.231Z,17.10
2022-12-19T04:57:51.142Z,15.60
2022-12-19T05:00:18.114Z,18.70
2022-12-19T05:02:45.763Z,17.30
2022-12-19T05:05:12.795Z,16.20
2022-12-19T05:07:40.695Z,16.20
2022-12-19T05:10:07.966Z,17.20
2022-12-19T05:12:34.996Z,16.50
2022-12-19T05:15:01.844Z,16.30
2022-12-19T05:17:29.124Z,17.40
2022-12-19T05:19:55.997Z,17.00
2022-12-19T05:22:22.793Z,16.70
2022-12-19T05:24:49.594Z,16.40
2022-12-19T05:27:16.453Z,17.90
2022-12-19T05:29:43.283Z,16.20
2022-12-19T05:32:10.250Z,16.80
2022-12-19T05:34:37.422Z,15.40
2022-12-19T05:37:04.276Z,16.60
2022-12-19T05:39:31.087Z,15.70
2022-12-19T05:41:58.048Z,15.40
2022-12-19T05:44:25.761Z,14.60
2022-12-19T05:46:53.289Z,14.70
2022-12-19T05:49:20.351Z,13.90
2022-12-19T05:51:48.394Z,15.80
2022-12-19T05:54:15.311Z,16.40
2022-12-19T05:56:42.166Z,18.10
2022-12-19T05:59:09.008Z,19.40
2022-12-19T06:01:35.939Z,21.50
2022-12-19T06:04:04.110Z,20.40
2022-12-19T06:06:31.357Z,24.40
2022-12-19T06:08:58.679Z,22.30
2022-12-19T06:11:26.979Z,25.80
2022-12-19T06:13:53.783Z,24.20
2022-12-19T06:16:21.336Z,36.70
2022-12-19T06:18:48.467Z,48.40
2022-12-19T06:21:17.013Z,50.00
2022-12-19T06:23:44.285Z,55.50
2022-12-19T06:26:18.295Z,46.90
2022-12-19T06:28:46.423Z,42.90
2022-12-19T06:31:13.446Z,45.90
2022-12-19T06:33:40.407Z,45.70
2022-12-19T06:36:10.350Z,37.50
2022-12-19T06:38:37.407Z,33.40
2022-12-19T06:41:22.945Z,34.60
2022-12-19T06:43:53.445Z,33.60
2022-12-19T06:46:20.913Z,30.30
2022-12-19T06:48:48.561Z,28.50
2022-12-19T06:51:15.797Z,26.50
2022-12-19T06:53:42.719Z,30.70
2022-12-19T06:56:09.621Z,28.10
2022-12-19T06:58:36.662Z,25.70
2022-12-19T07:01:03.488Z,24.30
2022-12-19T07:03:40.313Z,21.40
2022-12-19T07:06:07.663Z,19.40
2022-12-19T07:08:34.463Z,21.00
2022-12-19T07:11:01.328Z,16.70
2022-12-19T07:13:28.418Z,17.40
2022-12-19T07:15:56.690Z,13.70
2022-12-19T07:18:23.609Z,13.10
2022-12-19T07:20:50.493Z,13.20
2022-12-19T07:23:18.919Z,14.50
2022-12-19T07:25:45.815Z,16.50
2022-12-19T07:28:12.803Z,13.60
2022-12-19T07:30:39.643Z,16.30
2022-12-19T07:33:08.919Z,17.10
2022-12-19T07:35:37.930Z,19.00
2022-12-19T07:38:05.643Z,17.90
2022-12-19T07:40:33.394Z,15.10
2022-12-19T07:43:04.043Z,17.30
2022-12-19T07:45:31.207Z,16.00
2022-12-19T07:48:01.985Z,16.70
2022-12-19T07:50:29.256Z,14.70
2022-12-19T07:52:56.932Z,17.10
2022-12-19T07:55:24.007Z,14.70
2022-12-19T07:57:51.022Z,14.90
2022-12-19T08:00:18.174Z,16.10
2022-12-19T08:02:45.166Z,15.40
2022-12-19T08:05:12.846Z,15.50
2022-12-19T08:07:40.863Z,13.60
2022-12-19T08:10:08.541Z,15.00
2022-12-19T08:12:35.473Z,13.60
2022-12-19T08:15:02.325Z,13.80
2022-12-19T08:17:29.221Z,16.10
2022-12-19T08:19:56.145Z,15.70
2022-12-19T08:22:23.395Z,17.80
2022-12-19T08:24:50.749Z,15.40
2022-12-19T08:27:17.767Z,15.60
2022-12-19T08:31:41.069Z,14.60
2022-12-19T08:34:08.019Z,15.50
2022-12-19T08:36:34.964Z,15.30
2022-12-19T08:39:01.904Z,14.70
2022-12-19T08:41:28.915Z,16.80
2022-12-19T08:43:56.616Z,14.60
2022-12-19T08:46:23.724Z,14.70
2022-12-19T08:48:50.809Z,13.20
2022-12-19T08:51:18.202Z,12.90
2022-12-19T08:53:45.833Z,12.00
2022-12-19T08:56:18.004Z,12.30
2022-12-19T08:58:45.152Z,12.60
2022-12-19T09:01:19.442Z,14.60
2022-12-19T09:04:23.438Z,11.80
2022-12-19T09:06:34.259Z,11.40
2022-12-19T09:09:01.296Z,13.70
2022-12-19T09:11:28.235Z,13.40
2022-12-19T09:13:58.558Z,13.40
2022-12-19T09:16:27.070Z,13.30
2022-12-19T09:18:55.622Z,12.70
2022-12-19T09:21:23.687Z,11.90
2022-12-19T09:23:52.449Z,13.00
2022-12-19T09:26:19.743Z,12.60
2022-12-19T20:49:48.156Z,36.50
2022-12-19T20:52:15.883Z,39.50
2022-12-19T20:54:42.933Z,36.50
2022-12-19T20:57:10.181Z,34.80
2022-12-19T20:59:37.049Z,34.60
2022-12-19T21:02:04.218Z,36.50
2022-12-19T21:04:31.567Z,36.00
2022-12-19T21:06:58.885Z,35.80
2022-12-19T21:09:26.031Z,34.80
2022-12-19T21:11:53.493Z,34.60
2022-12-19T21:14:23.408Z,35.70
2022-12-19T21:16:52.774Z,37.50
2022-12-19T21:19:20.367Z,43.80
2022-12-19T21:21:47.409Z,44.80
2022-12-19T21:24:14.664Z,45.10
2022-12-19T21:26:41.811Z,45.90
2022-12-19T21:29:10.084Z,46.90
2022-12-19T21:31:37.261Z,47.70
2022-12-19T21:34:04.383Z,50.10
2022-12-19T21:36:31.553Z,57.50
2022-12-19T21:39:00.259Z,53.80
2022-12-19T21:41:27.277Z,62.10
2022-12-19T21:43:55.253Z,58.60
2022-12-19T21:46:24.146Z,52.40
2022-12-19T21:48:53.293Z,49.30
2022-12-19T21:51:21.318Z,46.60
2022-12-19T21:53:48.600Z,51.50
2022-12-19T21:56:25.119Z,45.20
2022-12-19T21:58:59.743Z,46.10
2022-12-19T22:01:27.799Z,45.20
2022-12-19T22:04:02.124Z,40.80
2022-12-19T22:06:31.396Z,42.30
2022-12-19T22:09:02.278Z,43.60
2022-12-19T22:11:29.920Z,47.80
2022-12-19T22:14:05.426Z,48.70
2022-12-19T22:16:32.915Z,45.80
2022-12-19T22:19:00.136Z,48.60
2022-12-19T22:21:31.377Z,49.30
2022-12-19T22:24:02.138Z,50.80
2022-12-19T22:26:31.448Z,54.20
2022-12-19T22:28:59.667Z,52.10
2022-12-19T22:31:27.572Z,54.70
2022-12-19T22:33:59.456Z,47.90
2022-12-19T22:36:28.903Z,48.60
2022-12-19T22:38:56.525Z,47.00
2022-12-19T22:41:23.607Z,47.20
2022-12-19T22:43:50.621Z,45.30
2022-12-19T22:46:19.335Z,47.50
2022-12-19T22:48:49.748Z,47.60
2022-12-19T22:51:17.222Z,45.00
2022-12-19T22:53:44.086Z,48.10
2022-12-19T22:56:13.127Z,45.40
2022-12-19T22:58:40.962Z,48.20
2022-12-19T23:01:24.921Z,42.20
2022-12-19T23:03:53.429Z,44.40
2022-12-19T23:06:20.492Z,44.40
2022-12-19T23:08:47.594Z,44.00
2022-12-19T23:11:17.237Z,40.90
2022-12-19T23:13:44.541Z,39.80
2022-12-19T23:16:14.538Z,40.40
2022-12-19T23:18:41.907Z,41.00
2022-12-19T23:21:13.722Z,42.00
2022-12-19T23:23:42.700Z,43.60
2022-12-19T23:26:15.614Z,41.90
2022-12-19T23:28:43.938Z,39.60
2022-12-19T23:31:12.329Z,39.60
2022-12-19T23:33:39.125Z,38.10
2022-12-19T23:36:08.741Z,36.60
2022-12-19T23:38:35.743Z,34.80
2022-12-19T23:41:07.267Z,36.10
2022-12-19T23:43:35.672Z,36.10
2022-12-19T23:46:07.097Z,38.80
2022-12-19T23:48:33.991Z,36.70
2022-12-19T23:51:04.749Z,37.10
2022-12-19T23:53:32.077Z,35.40
2022-12-19T23:55:59.276Z,36.80
2022-12-19T23:58:26.123Z,35.90
